メインページ
METAR-TAF:

METAR-TAF

空港 :

エリー, ペンシルバニア州, アメリカ合衆国

緯度: 42-04-48N, 経度: 080-10-57W, 海抜: 223m

現時点の気象観測

当レポートは45分前の05:51(UTC)に作成
無風
気温 7°C
湿度 70%
気圧 1017 hPa
視程: 16.1km
高度3200ftの曇り

METAR: KERI 040551Z AUTO 00000KT 10SM OVC032 07/02 A3002 RMK AO2 SLP169 T00720022 10089 20067 55003

時間: 02:36 (06:36 UTC)

予報

当レポートは1時間16分前の05:20(UTC)に作成
予報は04日の 06時(UTC)から 05日の 06時(UTC)まで有効
の風 kt
視程: 10km
高度2500ftの雲は散在している
高度3500ftの曇り
04日の 06時(UTC)から 04日の 09時(UTC)まで一時的に
高度2500ftの千切れ雲あり
04日の 0900時(UTC)から
の風 kt
視程: 8.0km
高度2500ftの曇り
04日の 09時(UTC)から 04日の 12時(UTC)まで一時的に
視程: 3.2km
高度1200ftの千切れ雲あり
04日の 1400時(UTC)から
の風 5kt
視程: 10km
高度2500ftの曇り
04日の 1700時(UTC)から
の風 6kt
視程: 10km
高度3500ftの千切れ雲あり
04日の 2100時(UTC)から
の風 6kt
視程: 10km
高度5000ftの千切れ雲あり
05日の 0000時(UTC)から
の風 3kt
視程: 10km
高度10000ftの千切れ雲あり

TAF: KERI 040520Z 0406/0506 00000KT P6SM SCT025 OVC035 TEMPO 0406/0409 BKN025 FM040900 00000KT 5SM BR OVC025 TEMPO 0409/0412 2SM BR BKN012 FM041400 35005KT P6SM OVC025 FM041700 35006KT P6SM BKN035 FM042100 35006KT P6SM BKN050 FM050000 08003KT P6SM BKN100

4,000以上の空港の気象観測と天気予報(METAR報とTAF報)

利用可能な観測所は地図上に黄色い丸と赤い丸で示す。

丸の上にカーソルを重ねると観測所名を参照できる。

次にクリックすると気象観測と天気予報を参照できる。

マップの切り替え:黒色「×」印の緑ボタンをクリックして拡大、「-」印の緑ボタンをクリックして縮小、緑色の三角印をクリックして隣りの地図に切り替え


METAR-TAF: